sensor_id;sensor_type;location;lat;lon;timestamp;P1;durP1;ratioP1;P2;durP2;ratioP2
26702;SDS011;14316;51.074;3.704;2023-02-17T00:02:24;7.60;;;5.32;;
26702;SDS011;14316;51.074;3.704;2023-02-17T00:04:51;10.75;;;7.05;;
26702;SDS011;14316;51.074;3.704;2023-02-17T00:07:17;9.57;;;7.43;;
26702;SDS011;14316;51.074;3.704;2023-02-17T00:09:43;10.63;;;8.23;;
26702;SDS011;14316;51.074;3.704;2023-02-17T00:12:09;11.48;;;6.95;;
26702;SDS011;14316;51.074;3.704;2023-02-17T00:14:35;11.98;;;7.88;;
26702;SDS011;14316;51.074;3.704;2023-02-17T00:17:03;9.40;;;5.30;;
26702;SDS011;14316;51.074;3.704;2023-02-17T00:19:29;8.77;;;5.75;;
26702;SDS011;14316;51.074;3.704;2023-02-17T00:21:56;11.23;;;7.45;;
26702;SDS011;14316;51.074;3.704;2023-02-17T00:24:24;11.73;;;8.40;;
26702;SDS011;14316;51.074;3.704;2023-02-17T00:26:51;10.23;;;6.68;;
26702;SDS011;14316;51.074;3.704;2023-02-17T00:29:17;10.80;;;7.53;;
26702;SDS011;14316;51.074;3.704;2023-02-17T00:31:43;13.05;;;9.68;;
26702;SDS011;14316;51.074;3.704;2023-02-17T00:34:10;8.85;;;5.47;;
26702;SDS011;14316;51.074;3.704;2023-02-17T00:36:36;10.35;;;7.47;;
26702;SDS011;14316;51.074;3.704;2023-02-17T00:39:03;11.80;;;6.25;;
26702;SDS011;14316;51.074;3.704;2023-02-17T00:41:29;11.57;;;7.38;;
26702;SDS011;14316;51.074;3.704;2023-02-17T00:43:55;7.25;;;5.28;;
26702;SDS011;14316;51.074;3.704;2023-02-17T00:46:25;7.93;;;5.55;;
26702;SDS011;14316;51.074;3.704;2023-02-17T00:48:51;7.10;;;5.22;;
26702;SDS011;14316;51.074;3.704;2023-02-17T00:51:18;9.80;;;5.93;;
26702;SDS011;14316;51.074;3.704;2023-02-17T00:53:44;10.18;;;7.40;;
26702;SDS011;14316;51.074;3.704;2023-02-17T00:56:10;9.38;;;6.90;;
26702;SDS011;14316;51.074;3.704;2023-02-17T00:58:37;5.50;;;3.92;;
26702;SDS011;14316;51.074;3.704;2023-02-17T01:01:06;9.75;;;5.80;;
26702;SDS011;14316;51.074;3.704;2023-02-17T01:03:32;11.35;;;7.63;;
26702;SDS011;14316;51.074;3.704;2023-02-17T01:05:58;8.00;;;4.68;;
26702;SDS011;14316;51.074;3.704;2023-02-17T01:08:28;7.70;;;5.10;;
26702;SDS011;14316;51.074;3.704;2023-02-17T01:10:54;10.52;;;7.35;;
26702;SDS011;14316;51.074;3.704;2023-02-17T01:13:21;10.07;;;6.65;;
26702;SDS011;14316;51.074;3.704;2023-02-17T01:15:49;8.82;;;6.53;;
26702;SDS011;14316;51.074;3.704;2023-02-17T01:18:17;8.30;;;6.10;;
26702;SDS011;14316;51.074;3.704;2023-02-17T01:20:44;7.82;;;5.70;;
26702;SDS011;14316;51.074;3.704;2023-02-17T01:23:11;9.20;;;6.47;;
26702;SDS011;14316;51.074;3.704;2023-02-17T01:25:38;7.55;;;4.78;;
26702;SDS011;14316;51.074;3.704;2023-02-17T01:28:05;7.35;;;4.68;;
26702;SDS011;14316;51.074;3.704;2023-02-17T01:30:31;8.02;;;5.90;;
26702;SDS011;14316;51.074;3.704;2023-02-17T01:32:57;5.43;;;3.83;;
26702;SDS011;14316;51.074;3.704;2023-02-17T01:35:23;8.77;;;5.93;;
26702;SDS011;14316;51.074;3.704;2023-02-17T01:37:49;8.63;;;5.72;;
26702;SDS011;14316;51.074;3.704;2023-02-17T01:40:15;10.65;;;8.43;;
26702;SDS011;14316;51.074;3.704;2023-02-17T01:42:42;7.18;;;5.30;;
26702;SDS011;14316;51.074;3.704;2023-02-17T01:47:55;7.50;;;5.90;;
26702;SDS011;14316;51.074;3.704;2023-02-17T01:50:24;5.10;;;3.25;;
26702;SDS011;14316;51.074;3.704;2023-02-17T01:52:55;6.38;;;4.70;;
26702;SDS011;14316;51.074;3.704;2023-02-17T01:55:21;8.88;;;6.28;;
26702;SDS011;14316;51.074;3.704;2023-02-17T01:57:50;6.22;;;5.07;;
26702;SDS011;14316;51.074;3.704;2023-02-17T02:00:20;5.43;;;4.43;;
26702;SDS011;14316;51.074;3.704;2023-02-17T02:02:47;5.30;;;4.78;;
26702;SDS011;14316;51.074;3.704;2023-02-17T02:05:14;5.70;;;5.00;;
26702;SDS011;14316;51.074;3.704;2023-02-17T02:07:42;6.20;;;5.03;;
26702;SDS011;14316;51.074;3.704;2023-02-17T02:10:10;5.55;;;4.07;;
26702;SDS011;14316;51.074;3.704;2023-02-17T02:12:38;5.40;;;4.25;;
26702;SDS011;14316;51.074;3.704;2023-02-17T02:15:07;7.07;;;4.68;;
26702;SDS011;14316;51.074;3.704;2023-02-17T02:26:17;6.32;;;3.90;;
26702;SDS011;14316;51.074;3.704;2023-02-17T02:34:19;6.18;;;4.50;;
26702;SDS011;14316;51.074;3.704;2023-02-17T02:36:55;5.60;;;3.65;;
26702;SDS011;14316;51.074;3.704;2023-02-17T02:39:23;6.15;;;4.88;;
26702;SDS011;14316;51.074;3.704;2023-02-17T02:41:58;4.90;;;3.37;;
26702;SDS011;14316;51.074;3.704;2023-02-17T02:44:29;7.55;;;4.00;;
26702;SDS011;14316;51.074;3.704;2023-02-17T02:46:58;8.32;;;5.88;;
26702;SDS011;14316;51.074;3.704;2023-02-17T02:49:27;8.95;;;4.55;;
26702;SDS011;14316;51.074;3.704;2023-02-17T02:57:44;8.35;;;5.50;;
26702;SDS011;14316;51.074;3.704;2023-02-17T03:00:17;8.82;;;5.63;;
26702;SDS011;14316;51.074;3.704;2023-02-17T03:02:54;9.82;;;6.68;;
26702;SDS011;14316;51.074;3.704;2023-02-17T03:05:36;8.98;;;5.88;;
26702;SDS011;14316;51.074;3.704;2023-02-17T03:08:10;8.02;;;4.50;;
26702;SDS011;14316;51.074;3.704;2023-02-17T03:10:46;6.15;;;4.13;;
26702;SDS011;14316;51.074;3.704;2023-02-17T03:13:16;8.07;;;4.82;;
26702;SDS011;14316;51.074;3.704;2023-02-17T03:15:43;9.32;;;4.95;;
26702;SDS011;14316;51.074;3.704;2023-02-17T03:18:10;9.32;;;6.22;;
26702;SDS011;14316;51.074;3.704;2023-02-17T03:20:36;9.70;;;5.70;;
26702;SDS011;14316;51.074;3.704;2023-02-17T03:23:23;9.05;;;5.22;;
26702;SDS011;14316;51.074;3.704;2023-02-17T03:25:49;9.75;;;6.68;;
26702;SDS011;14316;51.074;3.704;2023-02-17T03:28:15;8.60;;;5.03;;
26702;SDS011;14316;51.074;3.704;2023-02-17T03:30:41;8.05;;;5.72;;
26702;SDS011;14316;51.074;3.704;2023-02-17T03:33:06;8.60;;;4.95;;
26702;SDS011;14316;51.074;3.704;2023-02-17T03:35:33;10.68;;;5.28;;
26702;SDS011;14316;51.074;3.704;2023-02-17T03:37:59;9.35;;;5.55;;
26702;SDS011;14316;51.074;3.704;2023-02-17T03:40:24;13.65;;;8.02;;
26702;SDS011;14316;51.074;3.704;2023-02-17T03:42:51;11.65;;;7.35;;
26702;SDS011;14316;51.074;3.704;2023-02-17T03:45:16;8.25;;;5.10;;
26702;SDS011;14316;51.074;3.704;2023-02-17T03:47:43;6.50;;;4.03;;
26702;SDS011;14316;51.074;3.704;2023-02-17T03:50:08;8.80;;;5.50;;
26702;SDS011;14316;51.074;3.704;2023-02-17T03:52:34;6.68;;;3.78;;
26702;SDS011;14316;51.074;3.704;2023-02-17T03:55:00;5.63;;;4.25;;
26702;SDS011;14316;51.074;3.704;2023-02-17T03:57:26;8.18;;;4.60;;
26702;SDS011;14316;51.074;3.704;2023-02-17T03:59:52;9.43;;;4.60;;
26702;SDS011;14316;51.074;3.704;2023-02-17T04:02:18;7.78;;;3.60;;
26702;SDS011;14316;51.074;3.704;2023-02-17T04:04:43;11.00;;;5.85;;
26702;SDS011;14316;51.074;3.704;2023-02-17T04:07:09;11.02;;;5.57;;
26702;SDS011;14316;51.074;3.704;2023-02-17T04:09:35;7.07;;;4.28;;
26702;SDS011;14316;51.074;3.704;2023-02-17T04:12:01;4.78;;;3.42;;
26702;SDS011;14316;51.074;3.704;2023-02-17T04:14:27;13.95;;;7.88;;
26702;SDS011;14316;51.074;3.704;2023-02-17T04:16:53;10.70;;;5.95;;
26702;SDS011;14316;51.074;3.704;2023-02-17T04:19:19;11.27;;;5.95;;
26702;SDS011;14316;51.074;3.704;2023-02-17T04:21:44;13.18;;;7.50;;
26702;SDS011;14316;51.074;3.704;2023-02-17T04:24:11;24.02;;;6.13;;
26702;SDS011;14316;51.074;3.704;2023-02-17T04:26:36;9.07;;;4.30;;
26702;SDS011;14316;51.074;3.704;2023-02-17T04:29:03;12.18;;;6.47;;
26702;SDS011;14316;51.074;3.704;2023-02-17T04:31:30;7.90;;;4.82;;
26702;SDS011;14316;51.074;3.704;2023-02-17T04:33:55;7.93;;;5.18;;
26702;SDS011;14316;51.074;3.704;2023-02-17T04:36:21;15.20;;;7.03;;
26702;SDS011;14316;51.074;3.704;2023-02-17T04:38:47;11.15;;;7.10;;
26702;SDS011;14316;51.074;3.704;2023-02-17T04:41:13;12.27;;;7.60;;
26702;SDS011;14316;51.074;3.704;2023-02-17T04:43:39;11.60;;;6.93;;
26702;SDS011;14316;51.074;3.704;2023-02-17T04:46:05;10.75;;;6.22;;
26702;SDS011;14316;51.074;3.704;2023-02-17T04:48:31;16.58;;;6.20;;
26702;SDS011;14316;51.074;3.704;2023-02-17T04:50:57;7.57;;;3.90;;
26702;SDS011;14316;51.074;3.704;2023-02-17T04:53:23;19.38;;;7.28;;
26702;SDS011;14316;51.074;3.704;2023-02-17T04:55:50;16.75;;;9.05;;
26702;SDS011;14316;51.074;3.704;2023-02-17T04:58:17;10.57;;;5.32;;
26702;SDS011;14316;51.074;3.704;2023-02-17T05:00:45;14.13;;;7.85;;
26702;SDS011;14316;51.074;3.704;2023-02-17T05:03:11;16.95;;;9.57;;
26702;SDS011;14316;51.074;3.704;2023-02-17T05:05:37;11.63;;;6.50;;
26702;SDS011;14316;51.074;3.704;2023-02-17T05:08:03;19.00;;;11.00;;
26702;SDS011;14316;51.074;3.704;2023-02-17T05:10:29;16.05;;;9.20;;
26702;SDS011;14316;51.074;3.704;2023-02-17T05:12:55;15.85;;;8.57;;
26702;SDS011;14316;51.074;3.704;2023-02-17T05:15:21;16.08;;;8.27;;
26702;SDS011;14316;51.074;3.704;2023-02-17T05:17:46;19.77;;;8.93;;
26702;SDS011;14316;51.074;3.704;2023-02-17T05:20:13;11.90;;;7.00;;
26702;SDS011;14316;51.074;3.704;2023-02-17T05:22:38;18.10;;;7.90;;
26702;SDS011;14316;51.074;3.704;2023-02-17T05:25:05;11.23;;;5.88;;
26702;SDS011;14316;51.074;3.704;2023-02-17T05:27:31;20.90;;;11.20;;
26702;SDS011;14316;51.074;3.704;2023-02-17T05:29:57;17.40;;;8.18;;
26702;SDS011;14316;51.074;3.704;2023-02-17T05:32:23;21.63;;;11.85;;
26702;SDS011;14316;51.074;3.704;2023-02-17T05:34:49;13.52;;;7.50;;
26702;SDS011;14316;51.074;3.704;2023-02-17T05:37:15;14.35;;;6.88;;
26702;SDS011;14316;51.074;3.704;2023-02-17T05:39:40;15.65;;;8.48;;
26702;SDS011;14316;51.074;3.704;2023-02-17T05:42:06;16.58;;;9.18;;
26702;SDS011;14316;51.074;3.704;2023-02-17T05:44:32;15.55;;;8.88;;
26702;SDS011;14316;51.074;3.704;2023-02-17T05:46:58;19.70;;;10.98;;
26702;SDS011;14316;51.074;3.704;2023-02-17T05:49:24;16.05;;;8.60;;
26702;SDS011;14316;51.074;3.704;2023-02-17T05:51:50;14.23;;;6.95;;
26702;SDS011;14316;51.074;3.704;2023-02-17T05:54:16;12.85;;;7.20;;
26702;SDS011;14316;51.074;3.704;2023-02-17T05:56:42;12.27;;;7.65;;
26702;SDS011;14316;51.074;3.704;2023-02-17T05:59:07;14.18;;;6.90;;
26702;SDS011;14316;51.074;3.704;2023-02-17T06:01:33;14.50;;;7.35;;
26702;SDS011;14316;51.074;3.704;2023-02-17T06:03:59;10.88;;;6.28;;
26702;SDS011;14316;51.074;3.704;2023-02-17T06:06:24;11.63;;;6.93;;
26702;SDS011;14316;51.074;3.704;2023-02-17T06:08:51;17.38;;;10.13;;
26702;SDS011;14316;51.074;3.704;2023-02-17T06:11:16;11.77;;;7.15;;
26702;SDS011;14316;51.074;3.704;2023-02-17T06:13:43;15.63;;;8.98;;
26702;SDS011;14316;51.074;3.704;2023-02-17T06:16:08;11.50;;;7.90;;
26702;SDS011;14316;51.074;3.704;2023-02-17T06:18:34;12.02;;;7.13;;
26702;SDS011;14316;51.074;3.704;2023-02-17T06:21:02;9.63;;;6.05;;
26702;SDS011;14316;51.074;3.704;2023-02-17T06:23:31;8.38;;;6.10;;
26702;SDS011;14316;51.074;3.704;2023-02-17T06:25:56;11.23;;;6.90;;
26702;SDS011;14316;51.074;3.704;2023-02-17T06:28:22;6.97;;;5.30;;
26702;SDS011;14316;51.074;3.704;2023-02-17T06:30:48;8.80;;;6.47;;
26702;SDS011;14316;51.074;3.704;2023-02-17T06:33:14;9.07;;;5.50;;
26702;SDS011;14316;51.074;3.704;2023-02-17T06:35:40;9.45;;;6.63;;
26702;SDS011;14316;51.074;3.704;2023-02-17T06:38:06;8.02;;;5.00;;
26702;SDS011;14316;51.074;3.704;2023-02-17T06:40:32;11.38;;;7.20;;
26702;SDS011;14316;51.074;3.704;2023-02-17T06:42:58;11.35;;;8.10;;
26702;SDS011;14316;51.074;3.704;2023-02-17T06:45:23;8.88;;;5.28;;
26702;SDS011;14316;51.074;3.704;2023-02-17T06:47:49;10.68;;;7.88;;
26702;SDS011;14316;51.074;3.704;2023-02-17T06:50:15;8.82;;;6.18;;
26702;SDS011;14316;51.074;3.704;2023-02-17T06:52:41;6.07;;;4.22;;
26702;SDS011;14316;51.074;3.704;2023-02-17T06:55:07;6.40;;;5.05;;
26702;SDS011;14316;51.074;3.704;2023-02-17T06:57:33;7.03;;;5.82;;
26702;SDS011;14316;51.074;3.704;2023-02-17T06:59:59;7.38;;;5.22;;
26702;SDS011;14316;51.074;3.704;2023-02-17T07:02:25;6.93;;;4.88;;
26702;SDS011;14316;51.074;3.704;2023-02-17T07:04:51;5.97;;;4.72;;
26702;SDS011;14316;51.074;3.704;2023-02-17T07:07:17;3.60;;;2.30;;
26702;SDS011;14316;51.074;3.704;2023-02-17T07:09:43;8.25;;;5.85;;
26702;SDS011;14316;51.074;3.704;2023-02-17T07:12:12;5.32;;;4.18;;
26702;SDS011;14316;51.074;3.704;2023-02-17T07:14:38;7.68;;;5.28;;
26702;SDS011;14316;51.074;3.704;2023-02-17T07:17:03;4.32;;;3.92;;
26702;SDS011;14316;51.074;3.704;2023-02-17T07:19:29;5.00;;;3.95;;
26702;SDS011;14316;51.074;3.704;2023-02-17T07:21:56;6.55;;;5.95;;
26702;SDS011;14316;51.074;3.704;2023-02-17T07:24:21;5.20;;;3.72;;
26702;SDS011;14316;51.074;3.704;2023-02-17T07:26:48;4.80;;;4.30;;
26702;SDS011;14316;51.074;3.704;2023-02-17T07:29:13;5.00;;;4.32;;
26702;SDS011;14316;51.074;3.704;2023-02-17T07:31:39;4.20;;;3.83;;
26702;SDS011;14316;51.074;3.704;2023-02-17T07:34:05;3.60;;;3.08;;
26702;SDS011;14316;51.074;3.704;2023-02-17T07:36:31;4.05;;;3.58;;
26702;SDS011;14316;51.074;3.704;2023-02-17T07:38:58;4.72;;;4.30;;
26702;SDS011;14316;51.074;3.704;2023-02-17T07:41:24;2.13;;;1.95;;
26702;SDS011;14316;51.074;3.704;2023-02-17T07:43:53;4.82;;;4.30;;
26702;SDS011;14316;51.074;3.704;2023-02-17T07:46:21;4.05;;;3.65;;
26702;SDS011;14316;51.074;3.704;2023-02-17T07:48:47;4.47;;;4.07;;
26702;SDS011;14316;51.074;3.704;2023-02-17T07:51:14;5.85;;;5.25;;
26702;SDS011;14316;51.074;3.704;2023-02-17T07:53:41;6.18;;;5.57;;
26702;SDS011;14316;51.074;3.704;2023-02-17T07:56:08;6.38;;;5.78;;
26702;SDS011;14316;51.074;3.704;2023-02-17T07:58:36;5.57;;;4.93;;
26702;SDS011;14316;51.074;3.704;2023-02-17T08:01:06;6.85;;;5.40;;
26702;SDS011;14316;51.074;3.704;2023-02-17T08:03:36;4.72;;;3.95;;
26702;SDS011;14316;51.074;3.704;2023-02-17T08:06:02;6.22;;;5.43;;
26702;SDS011;14316;51.074;3.704;2023-02-17T08:08:28;6.75;;;5.93;;
26702;SDS011;14316;51.074;3.704;2023-02-17T08:11:13;8.18;;;7.38;;
26702;SDS011;14316;51.074;3.704;2023-02-17T08:13:58;7.25;;;6.22;;
26702;SDS011;14316;51.074;3.704;2023-02-17T08:16:25;3.40;;;3.10;;
26702;SDS011;14316;51.074;3.704;2023-02-17T08:18:52;4.10;;;3.70;;
26702;SDS011;14316;51.074;3.704;2023-02-17T08:21:19;4.60;;;3.35;;
26702;SDS011;14316;51.074;3.704;2023-02-17T08:23:48;4.53;;;3.80;;
26702;SDS011;14316;51.074;3.704;2023-02-17T08:26:14;5.75;;;5.15;;
26702;SDS011;14316;51.074;3.704;2023-02-17T08:28:41;5.97;;;5.47;;
26702;SDS011;14316;51.074;3.704;2023-02-17T08:31:17;5.30;;;4.07;;
26702;SDS011;14316;51.074;3.704;2023-02-17T08:33:58;3.22;;;2.92;;
26702;SDS011;14316;51.074;3.704;2023-02-17T08:36:25;4.65;;;4.20;;
26702;SDS011;14316;51.074;3.704;2023-02-17T08:38:53;3.75;;;3.08;;
26702;SDS011;14316;51.074;3.704;2023-02-17T08:43:59;3.25;;;2.95;;
26702;SDS011;14316;51.074;3.704;2023-02-17T08:46:27;3.05;;;2.75;;
26702;SDS011;14316;51.074;3.704;2023-02-17T08:48:53;4.25;;;3.40;;
26702;SDS011;14316;51.074;3.704;2023-02-17T08:51:21;2.75;;;2.30;;
26702;SDS011;14316;51.074;3.704;2023-02-17T08:53:50;2.95;;;2.65;;
26702;SDS011;14316;51.074;3.704;2023-02-17T08:56:20;3.50;;;2.33;;
26702;SDS011;14316;51.074;3.704;2023-02-17T08:58:49;3.78;;;3.47;;
26702;SDS011;14316;51.074;3.704;2023-02-17T09:01:15;3.05;;;2.75;;
26702;SDS011;14316;51.074;3.704;2023-02-17T09:03:44;3.33;;;3.10;;
26702;SDS011;14316;51.074;3.704;2023-02-17T09:06:11;2.85;;;2.55;;
26702;SDS011;14316;51.074;3.704;2023-02-17T09:08:39;3.45;;;3.15;;
26702;SDS011;14316;51.074;3.704;2023-02-17T09:11:08;3.40;;;3.10;;
26702;SDS011;14316;51.074;3.704;2023-02-17T09:13:35;3.20;;;2.35;;
26702;SDS011;14316;51.074;3.704;2023-02-17T09:16:02;3.80;;;2.75;;
26702;SDS011;14316;51.074;3.704;2023-02-17T09:18:28;3.15;;;2.13;;
26702;SDS011;14316;51.074;3.704;2023-02-17T09:20:54;7.60;;;2.15;;
26702;SDS011;14316;51.074;3.704;2023-02-17T09:23:20;2.30;;;2.05;;
26702;SDS011;14316;51.074;3.704;2023-02-17T09:25:45;5.15;;;2.22;;
26702;SDS011;14316;51.074;3.704;2023-02-17T09:28:12;3.22;;;1.98;;
26702;SDS011;14316;51.074;3.704;2023-02-17T09:30:38;3.10;;;2.10;;
26702;SDS011;14316;51.074;3.704;2023-02-17T09:33:04;4.68;;;2.20;;
26702;SDS011;14316;51.074;3.704;2023-02-17T09:35:33;1.92;;;1.67;;
26702;SDS011;14316;51.074;3.704;2023-02-17T09:38:00;3.55;;;2.83;;
26702;SDS011;14316;51.074;3.704;2023-02-17T09:40:31;1.70;;;1.48;;
26702;SDS011;14316;51.074;3.704;2023-02-17T09:43:09;3.83;;;2.00;;
26702;SDS011;14316;51.074;3.704;2023-02-17T09:48:17;2.17;;;1.92;;
26702;SDS011;14316;51.074;3.704;2023-02-17T09:51:07;2.28;;;2.05;;
26702;SDS011;14316;51.074;3.704;2023-02-17T09:53:41;2.95;;;2.13;;
26702;SDS011;14316;51.074;3.704;2023-02-17T09:56:13;5.50;;;2.20;;
26702;SDS011;14316;51.074;3.704;2023-02-17T09:58:49;2.83;;;1.70;;
26702;SDS011;14316;51.074;3.704;2023-02-17T10:01:22;2.88;;;2.00;;
26702;SDS011;14316;51.074;3.704;2023-02-17T10:03:57;2.58;;;2.17;;
26702;SDS011;14316;51.074;3.704;2023-02-17T10:06:25;4.70;;;2.22;;
26702;SDS011;14316;51.074;3.704;2023-02-17T10:09:12;2.55;;;1.83;;
26702;SDS011;14316;51.074;3.704;2023-02-17T10:12:14;1.65;;;1.30;;
26702;SDS011;14316;51.074;3.704;2023-02-17T10:17:52;2.15;;;1.95;;
26702;SDS011;14316;51.074;3.704;2023-02-17T10:22:34;1.90;;;1.75;;
26702;SDS011;14316;51.074;3.704;2023-02-17T10:25:02;1.52;;;1.42;;
26702;SDS011;14316;51.074;3.704;2023-02-17T10:27:40;1.85;;;1.45;;
26702;SDS011;14316;51.074;3.704;2023-02-17T10:33:12;1.58;;;1.48;;
26702;SDS011;14316;51.074;3.704;2023-02-17T10:35:51;2.65;;;1.88;;
26702;SDS011;14316;51.074;3.704;2023-02-17T10:40:59;2.45;;;2.25;;
26702;SDS011;14316;51.074;3.704;2023-02-17T10:43:29;3.75;;;2.28;;
26702;SDS011;14316;51.074;3.704;2023-02-17T10:45:57;3.10;;;2.28;;
26702;SDS011;14316;51.074;3.704;2023-02-17T10:48:27;3.13;;;1.98;;
26702;SDS011;14316;51.074;3.704;2023-02-17T10:51:01;3.33;;;2.55;;
26702;SDS011;14316;51.074;3.704;2023-02-17T10:53:30;2.83;;;2.13;;
26702;SDS011;14316;51.074;3.704;2023-02-17T10:56:07;4.25;;;2.40;;
26702;SDS011;14316;51.074;3.704;2023-02-17T10:59:17;3.70;;;2.20;;
26702;SDS011;14316;51.074;3.704;2023-02-17T11:01:27;3.08;;;2.72;;
26702;SDS011;14316;51.074;3.704;2023-02-17T11:04:05;2.83;;;2.55;;
26702;SDS011;14316;51.074;3.704;2023-02-17T11:06:37;3.53;;;3.10;;
26702;SDS011;14316;51.074;3.704;2023-02-17T11:09:20;5.40;;;2.80;;
26702;SDS011;14316;51.074;3.704;2023-02-17T11:11:59;3.70;;;3.08;;
26702;SDS011;14316;51.074;3.704;2023-02-17T11:14:29;4.03;;;3.10;;
26702;SDS011;14316;51.074;3.704;2023-02-17T11:16:57;4.65;;;4.03;;
26702;SDS011;14316;51.074;3.704;2023-02-17T11:19:27;6.35;;;3.35;;
26702;SDS011;14316;51.074;3.704;2023-02-17T11:21:58;4.45;;;3.83;;
26702;SDS011;14316;51.074;3.704;2023-02-17T11:24:27;3.90;;;2.90;;
26702;SDS011;14316;51.074;3.704;2023-02-17T11:27:04;3.47;;;2.67;;
26702;SDS011;14316;51.074;3.704;2023-02-17T11:29:35;4.80;;;3.13;;
26702;SDS011;14316;51.074;3.704;2023-02-17T11:32:05;5.38;;;4.30;;
26702;SDS011;14316;51.074;3.704;2023-02-17T11:34:34;3.55;;;3.25;;
26702;SDS011;14316;51.074;3.704;2023-02-17T11:39:38;4.88;;;3.55;;
26702;SDS011;14316;51.074;3.704;2023-02-17T11:42:13;3.90;;;3.22;;
26702;SDS011;14316;51.074;3.704;2023-02-17T11:44:45;4.15;;;3.47;;
26702;SDS011;14316;51.074;3.704;2023-02-17T11:47:20;4.47;;;4.07;;
26702;SDS011;14316;51.074;3.704;2023-02-17T11:57:49;5.88;;;2.92;;
26702;SDS011;14316;51.074;3.704;2023-02-17T12:03:18;2.80;;;2.35;;
26702;SDS011;14316;51.074;3.704;2023-02-17T12:11:29;3.17;;;2.53;;
26702;SDS011;14316;51.074;3.704;2023-02-17T12:19:51;2.05;;;1.88;;
26702;SDS011;14316;51.074;3.704;2023-02-17T12:25:21;2.00;;;1.58;;
26702;SDS011;14316;51.074;3.704;2023-02-17T12:28:09;2.03;;;1.92;;
26702;SDS011;14316;51.074;3.704;2023-02-17T12:31:02;2.65;;;2.05;;
26702;SDS011;14316;51.074;3.704;2023-02-17T12:33:57;3.20;;;2.10;;
26702;SDS011;14316;51.074;3.704;2023-02-17T12:36:40;3.58;;;2.75;;
26702;SDS011;14316;51.074;3.704;2023-02-17T12:39:12;3.55;;;2.35;;
26702;SDS011;14316;51.074;3.704;2023-02-17T12:41:44;3.50;;;2.10;;
26702;SDS011;14316;51.074;3.704;2023-02-17T12:44:17;4.05;;;2.97;;
26702;SDS011;14316;51.074;3.704;2023-02-17T12:46:53;3.13;;;2.80;;
26702;SDS011;14316;51.074;3.704;2023-02-17T12:52:21;2.95;;;2.58;;
26702;SDS011;14316;51.074;3.704;2023-02-17T12:57:24;3.35;;;2.47;;
26702;SDS011;14316;51.074;3.704;2023-02-17T13:03:00;2.78;;;2.55;;
26702;SDS011;14316;51.074;3.704;2023-02-17T13:05:29;3.08;;;2.78;;
26702;SDS011;14316;51.074;3.704;2023-02-17T13:11:01;3.40;;;3.10;;
26702;SDS011;14316;51.074;3.704;2023-02-17T13:13:33;3.90;;;2.70;;
26702;SDS011;14316;51.074;3.704;2023-02-17T13:18:28;17.23;;;3.28;;
26702;SDS011;14316;51.074;3.704;2023-02-17T13:20:58;3.63;;;3.30;;
26702;SDS011;14316;51.074;3.704;2023-02-17T13:23:28;4.43;;;4.03;;
26702;SDS011;14316;51.074;3.704;2023-02-17T13:28:43;5.43;;;2.42;;
26702;SDS011;14316;51.074;3.704;2023-02-17T13:31:15;3.95;;;3.47;;
26702;SDS011;14316;51.074;3.704;2023-02-17T13:33:44;7.47;;;3.60;;
26702;SDS011;14316;51.074;3.704;2023-02-17T13:36:12;4.28;;;2.78;;
26702;SDS011;14316;51.074;3.704;2023-02-17T13:41:33;4.72;;;4.22;;
26702;SDS011;14316;51.074;3.704;2023-02-17T13:44:23;4.57;;;3.55;;
26702;SDS011;14316;51.074;3.704;2023-02-17T13:46:50;1.90;;;1.65;;
26702;SDS011;14316;51.074;3.704;2023-02-17T13:49:21;3.78;;;2.25;;
26702;SDS011;14316;51.074;3.704;2023-02-17T13:51:51;3.60;;;2.70;;
26702;SDS011;14316;51.074;3.704;2023-02-17T13:54:19;2.58;;;2.38;;
26702;SDS011;14316;51.074;3.704;2023-02-17T13:56:52;3.05;;;2.42;;
26702;SDS011;14316;51.074;3.704;2023-02-17T13:59:24;5.00;;;2.80;;
26702;SDS011;14316;51.074;3.704;2023-02-17T14:01:51;2.60;;;2.10;;
26702;SDS011;14316;51.074;3.704;2023-02-17T14:06:50;5.53;;;3.55;;
26702;SDS011;14316;51.074;3.704;2023-02-17T14:09:25;3.80;;;2.97;;
26702;SDS011;14316;51.074;3.704;2023-02-17T14:11:55;4.55;;;2.65;;
26702;SDS011;14316;51.074;3.704;2023-02-17T14:14:23;5.15;;;3.25;;
26702;SDS011;14316;51.074;3.704;2023-02-17T14:16:57;7.82;;;3.80;;
26702;SDS011;14316;51.074;3.704;2023-02-17T14:19:25;5.20;;;3.58;;
26702;SDS011;14316;51.074;3.704;2023-02-17T14:22:02;7.03;;;4.50;;
26702;SDS011;14316;51.074;3.704;2023-02-17T14:24:33;6.45;;;4.80;;
26702;SDS011;14316;51.074;3.704;2023-02-17T14:27:05;5.32;;;4.18;;
26702;SDS011;14316;51.074;3.704;2023-02-17T14:29:39;6.03;;;4.00;;
26702;SDS011;14316;51.074;3.704;2023-02-17T14:32:29;7.97;;;4.60;;
26702;SDS011;14316;51.074;3.704;2023-02-17T14:35:14;6.47;;;2.40;;
26702;SDS011;14316;51.074;3.704;2023-02-17T14:37:46;5.15;;;2.63;;
26702;SDS011;14316;51.074;3.704;2023-02-17T14:40:22;6.15;;;2.42;;
26702;SDS011;14316;51.074;3.704;2023-02-17T14:42:48;3.95;;;1.92;;
26702;SDS011;14316;51.074;3.704;2023-02-17T14:45:15;4.32;;;1.95;;
26702;SDS011;14316;51.074;3.704;2023-02-17T14:47:42;5.38;;;1.67;;
26702;SDS011;14316;51.074;3.704;2023-02-17T14:50:09;5.00;;;2.10;;
26702;SDS011;14316;51.074;3.704;2023-02-17T14:52:46;3.70;;;2.03;;
26702;SDS011;14316;51.074;3.704;2023-02-17T14:55:20;3.08;;;2.05;;
26702;SDS011;14316;51.074;3.704;2023-02-17T14:57:55;3.05;;;1.45;;
26702;SDS011;14316;51.074;3.704;2023-02-17T15:00:21;1.50;;;1.40;;
26702;SDS011;14316;51.074;3.704;2023-02-17T15:02:48;5.07;;;2.38;;
26702;SDS011;14316;51.074;3.704;2023-02-17T15:05:17;4.13;;;2.47;;
26702;SDS011;14316;51.074;3.704;2023-02-17T15:07:43;1.98;;;1.70;;
26702;SDS011;14316;51.074;3.704;2023-02-17T15:10:13;4.53;;;1.92;;
26702;SDS011;14316;51.074;3.704;2023-02-17T15:12:44;4.00;;;1.80;;
26702;SDS011;14316;51.074;3.704;2023-02-17T15:15:14;2.92;;;1.80;;
26702;SDS011;14316;51.074;3.704;2023-02-17T15:17:41;2.55;;;1.42;;
26702;SDS011;14316;51.074;3.704;2023-02-17T15:20:07;3.30;;;1.45;;
26702;SDS011;14316;51.074;3.704;2023-02-17T15:22:34;3.97;;;1.88;;
26702;SDS011;14316;51.074;3.704;2023-02-17T15:25:08;5.65;;;2.20;;
26702;SDS011;14316;51.074;3.704;2023-02-17T15:27:42;3.75;;;1.67;;
26702;SDS011;14316;51.074;3.704;2023-02-17T15:30:11;4.85;;;2.05;;
26702;SDS011;14316;51.074;3.704;2023-02-17T15:32:41;4.15;;;1.95;;
26702;SDS011;14316;51.074;3.704;2023-02-17T15:35:21;7.85;;;2.55;;
26702;SDS011;14316;51.074;3.704;2023-02-17T15:37:48;7.03;;;2.45;;
26702;SDS011;14316;51.074;3.704;2023-02-17T15:40:16;2.65;;;1.67;;
26702;SDS011;14316;51.074;3.704;2023-02-17T15:42:44;4.95;;;2.63;;
26702;SDS011;14316;51.074;3.704;2023-02-17T15:45:15;4.57;;;2.60;;
26702;SDS011;14316;51.074;3.704;2023-02-17T15:47:45;6.57;;;3.03;;
26702;SDS011;14316;51.074;3.704;2023-02-17T15:50:19;7.72;;;2.70;;
26702;SDS011;14316;51.074;3.704;2023-02-17T15:52:48;5.55;;;2.13;;
26702;SDS011;14316;51.074;3.704;2023-02-17T15:55:15;9.02;;;3.40;;
26702;SDS011;14316;51.074;3.704;2023-02-17T15:57:55;4.80;;;2.65;;
26702;SDS011;14316;51.074;3.704;2023-02-17T16:00:27;6.63;;;2.47;;
26702;SDS011;14316;51.074;3.704;2023-02-17T16:05:22;7.30;;;3.30;;
26702;SDS011;14316;51.074;3.704;2023-02-17T16:07:50;7.40;;;2.92;;
26702;SDS011;14316;51.074;3.704;2023-02-17T16:10:17;7.30;;;2.55;;
26702;SDS011;14316;51.074;3.704;2023-02-17T16:12:45;7.05;;;2.25;;
26702;SDS011;14316;51.074;3.704;2023-02-17T16:15:21;7.00;;;3.35;;
26702;SDS011;14316;51.074;3.704;2023-02-17T16:17:49;6.03;;;2.78;;
26702;SDS011;14316;51.074;3.704;2023-02-17T16:20:26;8.45;;;3.42;;
26702;SDS011;14316;51.074;3.704;2023-02-17T16:22:53;5.05;;;2.58;;
26702;SDS011;14316;51.074;3.704;2023-02-17T16:25:20;7.40;;;3.50;;
26702;SDS011;14316;51.074;3.704;2023-02-17T16:27:47;11.15;;;3.90;;
26702;SDS011;14316;51.074;3.704;2023-02-17T16:30:22;6.80;;;3.08;;